createdAt,value
2023-01-17T00:00:34.819Z,55.20
2023-01-17T00:03:01.478Z,55.20
2023-01-17T00:05:47.033Z,55.20
2023-01-17T00:08:32.342Z,55.20
2023-01-17T00:10:59.074Z,55.20
2023-01-17T00:13:25.688Z,55.20
2023-01-17T00:15:53.049Z,55.20
2023-01-17T00:18:19.709Z,55.20
2023-01-17T00:21:04.736Z,55.20
2023-01-17T00:23:50.138Z,55.20
2023-01-17T00:26:18.058Z,55.20
2023-01-17T00:28:44.736Z,55.20
2023-01-17T00:31:14.195Z,55.20
2023-01-17T00:33:40.898Z,55.20
2023-01-17T00:36:07.917Z,55.20
2023-01-17T00:38:36.089Z,55.20
2023-01-17T00:41:04.008Z,55.20
2023-01-17T00:43:49.192Z,55.20
2023-01-17T00:46:34.519Z,55.20
2023-01-17T00:49:20.100Z,55.20
2023-01-17T00:52:05.607Z,55.10
2023-01-17T00:54:51.120Z,55.20
2023-01-17T00:57:36.421Z,55.20
2023-01-17T01:00:22.396Z,55.20
2023-01-17T01:03:07.653Z,55.20
2023-01-17T01:05:53.010Z,55.20
2023-01-17T01:08:40.391Z,55.20
2023-01-17T01:11:27.039Z,55.20
2023-01-17T01:14:12.399Z,55.10
2023-01-17T01:16:57.875Z,55.20
2023-01-17T01:19:43.398Z,55.20
2023-01-17T01:22:28.612Z,55.10
2023-01-17T01:25:13.984Z,55.10
2023-01-17T01:27:59.454Z,55.10
2023-01-17T01:30:44.890Z,55.20
2023-01-17T01:33:18.600Z,55.10
2023-01-17T01:35:52.482Z,55.10
2023-01-17T01:38:19.835Z,55.20
2023-01-17T01:40:48.157Z,55.10
2023-01-17T01:43:15.700Z,55.10
2023-01-17T01:45:45.436Z,55.10
2023-01-17T01:48:35.845Z,55.10
2023-01-17T01:51:07.343Z,55.20
2023-01-17T01:53:35.842Z,55.10
2023-01-17T01:56:02.508Z,55.20
2023-01-17T01:58:29.201Z,55.10
2023-01-17T02:00:55.903Z,55.10
2023-01-17T02:03:30.271Z,55.70
2023-01-17T02:05:59.001Z,55.20
2023-01-17T02:08:25.585Z,55.20
2023-01-17T02:10:52.216Z,55.10
2023-01-17T02:13:19.546Z,55.10
2023-01-17T02:16:01.482Z,55.20
2023-01-17T02:18:41.152Z,55.10
2023-01-17T02:21:16.873Z,55.10
2023-01-17T02:23:51.647Z,55.10
2023-01-17T02:26:48.007Z,55.10
2023-01-17T02:29:28.010Z,55.10
2023-01-17T02:32:12.072Z,55.10
2023-01-17T02:34:50.286Z,55.10
2023-01-17T02:37:45.263Z,55.10
2023-01-17T02:40:22.586Z,55.10
2023-01-17T02:42:56.359Z,55.20
2023-01-17T02:45:22.983Z,55.10
2023-01-17T02:47:49.572Z,55.10
2023-01-17T02:50:18.919Z,55.20
2023-01-17T02:52:51.580Z,55.10
2023-01-17T02:55:45.777Z,55.10
2023-01-17T02:58:27.329Z,55.10
2023-01-17T03:01:19.683Z,55.20
2023-01-17T03:03:46.273Z,55.10
2023-01-17T03:06:25.364Z,55.10
2023-01-17T03:08:51.952Z,55.10
2023-01-17T03:11:18.580Z,55.10
2023-01-17T03:13:45.225Z,55.10
2023-01-17T03:16:17.408Z,55.10
2023-01-17T03:18:44.078Z,55.10
2023-01-17T03:21:10.685Z,55.10
2023-01-17T03:23:37.276Z,55.10
2023-01-17T03:26:03.885Z,55.10
2023-01-17T03:28:30.473Z,55.10
2023-01-17T03:30:57.135Z,55.10
2023-01-17T03:33:24.547Z,55.10
2023-01-17T03:35:51.248Z,55.10
2023-01-17T03:38:17.858Z,55.10
2023-01-17T03:40:44.444Z,55.10
2023-01-17T03:43:11.771Z,55.10
2023-01-17T03:45:38.397Z,55.10
2023-01-17T03:48:06.190Z,55.10
2023-01-17T03:50:32.777Z,55.10
2023-01-17T03:52:59.385Z,55.10
2023-01-17T03:55:26.016Z,55.10
2023-01-17T03:57:52.795Z,55.00
2023-01-17T04:00:20.731Z,55.00
2023-01-17T04:02:47.412Z,55.10
2023-01-17T04:05:14.097Z,55.10
2023-01-17T04:07:41.086Z,55.00
2023-01-17T04:10:07.874Z,55.00
2023-01-17T04:12:34.535Z,55.00
2023-01-17T04:15:01.115Z,55.00
2023-01-17T04:17:27.744Z,55.00
2023-01-17T04:19:54.331Z,55.10
2023-01-17T04:22:20.923Z,55.00
2023-01-17T04:24:47.503Z,55.00
2023-01-17T04:27:14.326Z,55.00
2023-01-17T04:29:41.106Z,55.00
2023-01-17T04:32:07.733Z,55.00
2023-01-17T04:34:34.353Z,55.00
2023-01-17T04:37:00.971Z,55.00
2023-01-17T04:39:27.563Z,55.00
2023-01-17T04:41:54.171Z,55.00
2023-01-17T04:44:20.772Z,55.00
2023-01-17T04:46:47.433Z,55.00
2023-01-17T04:49:14.025Z,55.00
2023-01-17T04:51:40.613Z,55.00
2023-01-17T04:54:07.204Z,55.00
2023-01-17T04:56:33.811Z,55.00
2023-01-17T04:59:00.431Z,55.00
2023-01-17T05:01:27.087Z,55.00
2023-01-17T05:03:53.773Z,55.00
2023-01-17T05:06:20.365Z,55.00
2023-01-17T05:08:46.976Z,55.00
2023-01-17T05:11:13.566Z,55.00
2023-01-17T05:13:40.181Z,55.00
2023-01-17T05:16:06.976Z,55.00
2023-01-17T05:18:33.646Z,55.00
2023-01-17T05:21:03.536Z,55.00
2023-01-17T05:23:30.173Z,55.00
2023-01-17T05:25:56.769Z,55.00
2023-01-17T05:28:23.390Z,55.00
2023-01-17T05:30:50.049Z,55.00
2023-01-17T05:33:16.668Z,55.00
2023-01-17T05:35:43.276Z,55.00
2023-01-17T05:38:09.895Z,55.00
2023-01-17T05:40:36.552Z,55.00
2023-01-17T05:43:03.878Z,55.10
2023-01-17T05:45:31.022Z,55.00
2023-01-17T05:47:58.418Z,55.00
2023-01-17T05:50:30.059Z,55.10
2023-01-17T05:52:58.733Z,55.10
2023-01-17T05:55:25.669Z,55.00
2023-01-17T05:57:52.452Z,55.00
2023-01-17T06:00:19.519Z,55.10
2023-01-17T06:02:46.748Z,55.10
2023-01-17T06:05:13.711Z,55.00
2023-01-17T06:07:40.338Z,55.10
2023-01-17T06:10:07.335Z,55.00
2023-01-17T06:12:33.933Z,55.00
2023-01-17T06:15:00.535Z,55.00
2023-01-17T06:17:27.121Z,55.10
2023-01-17T06:19:53.722Z,55.10
2023-01-17T06:22:20.330Z,55.00
2023-01-17T06:24:46.935Z,55.00
2023-01-17T06:27:13.519Z,55.00
2023-01-17T06:29:40.158Z,55.00
2023-01-17T06:32:06.761Z,55.10
2023-01-17T06:34:33.369Z,55.00
2023-01-17T06:36:59.953Z,55.10
2023-01-17T06:39:26.565Z,55.10
2023-01-17T06:41:53.170Z,55.10
2023-01-17T06:44:19.774Z,55.00
2023-01-17T06:46:48.005Z,55.20
2023-01-17T06:49:14.965Z,55.10
2023-01-17T06:51:43.591Z,55.20
2023-01-17T06:54:10.417Z,55.10
2023-01-17T06:56:37.262Z,55.10
2023-01-17T06:59:04.021Z,55.10
2023-01-17T07:01:31.103Z,55.20
2023-01-17T07:03:57.811Z,55.10
2023-01-17T07:06:28.580Z,55.10
2023-01-17T07:08:56.349Z,55.20
2023-01-17T07:11:23.213Z,55.10
2023-01-17T07:13:50.441Z,55.10
2023-01-17T07:16:17.174Z,55.10
2023-01-17T07:18:43.827Z,55.10
2023-01-17T07:21:14.427Z,55.20
2023-01-17T07:23:41.302Z,55.10
2023-01-17T07:26:08.050Z,55.10
2023-01-17T07:28:34.630Z,55.10
2023-01-17T07:31:08.214Z,55.10
2023-01-17T07:33:35.143Z,55.10
2023-01-17T07:36:08.203Z,55.20
2023-01-17T07:38:34.911Z,55.20
2023-01-17T07:41:01.555Z,55.10
2023-01-17T07:43:28.196Z,55.10
2023-01-17T07:45:54.869Z,55.10
2023-01-17T07:48:23.662Z,55.10
2023-01-17T07:50:56.575Z,55.10
2023-01-17T07:53:27.544Z,55.20
2023-01-17T07:55:54.154Z,55.20
2023-01-17T07:58:20.851Z,55.20
2023-01-17T08:00:47.594Z,55.20
2023-01-17T08:03:15.894Z,55.20
2023-01-17T08:05:43.094Z,55.10
2023-01-17T08:08:09.745Z,55.20
2023-01-17T08:10:36.467Z,55.20
2023-01-17T08:13:03.157Z,55.20
2023-01-17T08:15:29.806Z,55.20
2023-01-17T08:17:57.926Z,55.20
2023-01-17T08:20:27.561Z,55.20
2023-01-17T08:22:55.807Z,55.80
2023-01-17T08:25:25.494Z,55.20
2023-01-17T08:27:54.778Z,55.20
2023-01-17T08:30:21.383Z,55.20
2023-01-17T08:32:47.975Z,55.20
2023-01-17T08:35:14.625Z,55.20
2023-01-17T08:37:41.739Z,55.20
2023-01-17T08:40:09.130Z,55.20
2023-01-17T08:42:39.230Z,55.20
2023-01-17T08:45:06.920Z,55.20
2023-01-17T08:47:34.038Z,55.20
2023-01-17T08:50:00.993Z,55.20
2023-01-17T08:52:28.218Z,55.20
2023-01-17T08:54:54.957Z,55.20
2023-01-17T08:57:21.842Z,55.20
2023-01-17T08:59:48.485Z,55.20
2023-01-17T09:02:15.500Z,55.20
2023-01-17T09:04:45.601Z,55.20
2023-01-17T09:07:12.250Z,55.20
2023-01-17T09:09:38.914Z,55.20
2023-01-17T09:12:06.529Z,55.20
2023-01-17T09:14:33.975Z,55.20
2023-01-17T09:17:00.720Z,55.20
2023-01-17T09:19:27.455Z,55.20
2023-01-17T09:21:54.044Z,55.20
2023-01-17T09:24:20.625Z,55.20
2023-01-17T09:26:47.257Z,55.20
2023-01-17T09:29:17.690Z,55.20
2023-01-17T09:31:48.066Z,55.20
2023-01-17T09:34:14.729Z,55.20
2023-01-17T09:36:41.919Z,55.20
2023-01-17T09:39:09.837Z,55.20
2023-01-17T09:41:58.903Z,55.80
2023-01-17T09:44:45.014Z,55.20
2023-01-17T09:47:19.898Z,55.20
2023-01-17T09:49:46.950Z,55.20
2023-01-17T09:52:18.580Z,55.20
2023-01-17T09:54:46.477Z,55.20
2023-01-17T09:57:16.422Z,55.20
2023-01-17T10:00:02.849Z,55.20
2023-01-17T10:02:38.935Z,55.20
2023-01-17T10:05:28.559Z,55.20
2023-01-17T10:08:24.481Z,55.20
2023-01-17T10:11:10.080Z,55.20
2023-01-17T10:13:54.753Z,55.20
2023-01-17T10:16:31.325Z,55.20
2023-01-17T10:19:20.552Z,55.20
2023-01-17T10:22:10.240Z,55.20
2023-01-17T10:25:02.085Z,55.20
2023-01-17T10:27:33.886Z,55.30
2023-01-17T10:30:02.174Z,55.30
2023-01-17T10:32:29.547Z,55.30
2023-01-17T10:34:56.130Z,55.30
2023-01-17T10:37:43.020Z,55.40
2023-01-17T10:40:41.004Z,55.30
2023-01-17T10:43:15.405Z,55.40
2023-01-17T10:45:44.763Z,55.40
2023-01-17T10:48:12.962Z,55.30
2023-01-17T10:51:01.621Z,55.40
2023-01-17T10:53:35.709Z,55.40
2023-01-17T10:56:02.651Z,55.40
2023-01-17T10:58:29.281Z,55.40
2023-01-17T11:00:59.948Z,55.40
2023-01-17T11:03:28.501Z,55.40
2023-01-17T11:06:17.806Z,55.40
2023-01-17T11:08:52.137Z,55.50
2023-01-17T11:11:19.743Z,55.50
2023-01-17T11:13:47.667Z,55.40
2023-01-17T11:16:22.100Z,55.50
2023-01-17T11:19:03.392Z,55.40
2023-01-17T11:21:29.979Z,55.40
2023-01-17T11:23:59.555Z,55.40
2023-01-17T11:26:30.882Z,55.40
2023-01-17T11:29:13.470Z,55.40
2023-01-17T11:31:40.074Z,55.40
2023-01-17T11:34:17.955Z,55.40
2023-01-17T11:36:44.551Z,55.60
2023-01-17T11:39:17.327Z,55.60
2023-01-17T11:41:44.851Z,55.60
2023-01-17T11:44:31.334Z,55.60
2023-01-17T11:47:11.009Z,55.60
2023-01-17T11:49:37.903Z,55.70
2023-01-17T11:52:31.848Z,55.70
2023-01-17T11:54:58.502Z,55.60
2023-01-17T11:57:31.109Z,55.40
2023-01-17T12:00:19.655Z,55.50
2023-01-17T12:03:07.933Z,55.50
2023-01-17T12:05:39.853Z,55.50
2023-01-17T12:08:17.426Z,55.50
2023-01-17T12:11:13.749Z,55.50
2023-01-17T12:14:01.402Z,55.60
2023-01-17T12:17:01.262Z,55.60
2023-01-17T12:19:49.096Z,55.60
2023-01-17T12:22:40.414Z,55.60
2023-01-17T12:25:18.887Z,55.60
2023-01-17T12:27:55.496Z,55.70
2023-01-17T12:30:34.459Z,55.60
2023-01-17T12:33:04.458Z,55.50
2023-01-17T12:35:43.948Z,55.50
2023-01-17T12:38:27.419Z,55.50
2023-01-17T12:41:19.005Z,55.60
2023-01-17T12:43:45.769Z,55.60
2023-01-17T12:46:29.993Z,55.60
2023-01-17T12:49:12.341Z,55.50
2023-01-17T12:51:40.323Z,55.50
2023-01-17T12:54:18.436Z,55.50
2023-01-17T12:56:51.041Z,55.60
2023-01-17T12:59:35.157Z,55.60
2023-01-17T13:02:02.399Z,55.70
2023-01-17T13:04:57.685Z,55.70
2023-01-17T13:07:30.735Z,55.70
2023-01-17T13:10:25.398Z,55.60
2023-01-17T13:12:52.179Z,55.50
2023-01-17T13:15:21.407Z,55.50
2023-01-17T13:17:54.296Z,55.50
2023-01-17T13:20:57.890Z,55.40
2023-01-17T13:23:55.801Z,55.40
2023-01-17T13:26:40.239Z,55.30
2023-01-17T13:29:43.725Z,55.30
2023-01-17T13:32:33.961Z,55.30
2023-01-17T13:35:24.489Z,55.40
2023-01-17T13:38:27.158Z,55.30
2023-01-17T13:40:55.654Z,55.40
2023-01-17T13:43:26.467Z,55.40
2023-01-17T13:45:57.234Z,55.40
2023-01-17T13:48:28.716Z,55.30
2023-01-17T13:50:58.120Z,55.30
2023-01-17T13:53:36.932Z,55.30
2023-01-17T13:56:13.901Z,55.40
2023-01-17T13:58:50.336Z,55.30
2023-01-17T14:01:22.904Z,55.30
2023-01-17T14:03:49.899Z,55.30
2023-01-17T14:06:30.346Z,55.40
2023-01-17T14:09:12.738Z,55.30
2023-01-17T14:11:58.601Z,55.30
2023-01-17T14:14:40.400Z,55.40
2023-01-17T14:17:36.752Z,55.50
2023-01-17T14:20:09.149Z,55.60
2023-01-17T14:22:36.468Z,55.70
2023-01-17T14:25:09.839Z,55.70
2023-01-17T14:27:42.582Z,55.70
2023-01-17T14:30:36.504Z,55.60
2023-01-17T14:33:04.577Z,55.60
2023-01-17T14:35:39.824Z,55.70
2023-01-17T14:38:18.318Z,55.50
2023-01-17T14:40:50.715Z,55.60
2023-01-17T14:43:19.514Z,55.60
2023-01-17T14:45:46.120Z,55.60
2023-01-17T14:48:20.159Z,55.50
2023-01-17T14:50:51.088Z,55.50
2023-01-17T14:53:18.849Z,55.50
2023-01-17T14:55:48.200Z,55.50
2023-01-17T14:58:25.490Z,55.50
2023-01-17T15:01:00.317Z,55.50
2023-01-17T15:03:27.309Z,55.50
2023-01-17T15:05:54.860Z,55.50
2023-01-17T15:08:27.915Z,55.40
2023-01-17T15:10:58.315Z,55.40
2023-01-17T15:13:44.298Z,55.40
2023-01-17T15:16:25.612Z,55.50
2023-01-17T15:18:53.084Z,55.40
2023-01-17T15:21:21.490Z,55.40
2023-01-17T15:23:57.937Z,55.40
2023-01-17T15:26:25.678Z,55.40
2023-01-17T15:28:52.865Z,55.40
2023-01-17T15:31:37.741Z,55.50
2023-01-17T15:34:06.314Z,55.40
2023-01-17T15:36:33.125Z,55.40
2023-01-17T15:39:19.551Z,55.40
2023-01-17T15:41:47.490Z,55.40
2023-01-17T15:44:46.859Z,55.30
2023-01-17T15:47:40.011Z,55.30
2023-01-17T15:50:27.873Z,55.30
2023-01-17T15:53:00.805Z,55.30
2023-01-17T15:55:38.045Z,55.30
2023-01-17T15:58:06.037Z,55.30
2023-01-17T16:00:39.238Z,55.20
2023-01-17T16:03:21.741Z,55.30
2023-01-17T16:05:49.126Z,55.20
2023-01-17T16:08:16.141Z,55.20
2023-01-17T16:10:43.087Z,55.20
2023-01-17T16:13:10.875Z,55.20
2023-01-17T16:15:37.936Z,55.20
2023-01-17T16:18:07.389Z,55.20
2023-01-17T16:20:41.334Z,55.10
2023-01-17T16:23:09.797Z,55.20
2023-01-17T16:25:36.392Z,55.10
2023-01-17T16:28:03.477Z,55.10
2023-01-17T16:30:30.234Z,55.20
2023-01-17T16:32:56.882Z,55.10
2023-01-17T16:35:25.226Z,55.20
2023-01-17T16:37:53.757Z,55.10
2023-01-17T16:40:21.645Z,55.10
2023-01-17T16:42:48.274Z,55.20
2023-01-17T16:45:15.110Z,55.10
2023-01-17T16:47:42.380Z,55.20
2023-01-17T16:50:10.303Z,55.20
2023-01-17T16:52:37.161Z,55.10
2023-01-17T16:55:05.378Z,55.00
2023-01-17T16:57:32.262Z,55.00
2023-01-17T16:59:58.880Z,55.10
2023-01-17T17:02:25.605Z,55.10
2023-01-17T17:04:52.265Z,55.10
2023-01-17T17:07:18.874Z,55.00
2023-01-17T17:09:45.489Z,55.10
2023-01-17T17:12:12.098Z,55.10
2023-01-17T17:14:38.725Z,55.10
2023-01-17T17:17:06.560Z,55.00
2023-01-17T17:19:33.703Z,55.10
2023-01-17T17:22:01.463Z,55.10
2023-01-17T17:24:28.179Z,55.00
2023-01-17T17:26:54.844Z,55.10
2023-01-17T17:29:21.449Z,55.00
2023-01-17T17:31:48.120Z,55.10
2023-01-17T17:34:14.862Z,55.00
2023-01-17T17:36:41.615Z,55.00
2023-01-17T17:39:10.645Z,55.00
2023-01-17T17:41:40.568Z,55.00
2023-01-17T17:44:07.208Z,55.00
2023-01-17T17:46:34.841Z,55.10
2023-01-17T17:49:01.684Z,55.00
2023-01-17T17:51:32.731Z,55.00
2023-01-17T17:54:01.201Z,55.00
2023-01-17T17:56:28.676Z,55.00
2023-01-17T17:58:55.391Z,55.00
2023-01-17T18:01:24.776Z,55.00
2023-01-17T18:03:52.100Z,55.00
2023-01-17T18:06:18.775Z,55.00
2023-01-17T18:08:45.512Z,55.00
2023-01-17T18:11:14.949Z,55.00
2023-01-17T18:13:42.680Z,55.00
2023-01-17T18:16:11.490Z,55.00
2023-01-17T18:18:41.337Z,55.00
2023-01-17T18:21:29.101Z,54.90
2023-01-17T18:24:00.945Z,55.00
2023-01-17T18:26:32.451Z,55.00
2023-01-17T18:28:59.454Z,55.00
2023-01-17T18:31:27.442Z,55.00
2023-01-17T18:33:59.293Z,54.90
2023-01-17T18:36:26.170Z,55.00
2023-01-17T18:38:52.800Z,55.00
2023-01-17T18:41:26.904Z,54.90
2023-01-17T18:43:55.966Z,55.00
2023-01-17T18:46:22.736Z,54.90
2023-01-17T18:48:49.415Z,54.90
2023-01-17T18:51:17.021Z,54.90
2023-01-17T18:53:44.395Z,54.90
2023-01-17T18:56:15.491Z,54.90
2023-01-17T18:58:43.135Z,54.90
2023-01-17T19:01:13.837Z,54.80
2023-01-17T19:03:41.359Z,54.90
2023-01-17T19:06:10.542Z,54.90
2023-01-17T19:08:37.148Z,54.90
2023-01-17T19:11:06.477Z,54.90
2023-01-17T19:13:34.797Z,54.80
2023-01-17T19:16:28.745Z,54.90
2023-01-17T19:18:56.194Z,55.40
2023-01-17T19:21:26.197Z,54.80
2023-01-17T19:23:53.329Z,54.90
2023-01-17T19:26:20.388Z,54.80
2023-01-17T19:28:48.101Z,54.80
2023-01-17T19:31:20.757Z,54.80
2023-01-17T19:33:47.852Z,54.80
2023-01-17T19:36:19.543Z,54.80
2023-01-17T19:38:58.769Z,54.80
2023-01-17T19:41:30.620Z,54.80
2023-01-17T19:44:01.308Z,54.80
2023-01-17T19:46:27.987Z,54.80
2023-01-17T19:48:55.394Z,54.80
2023-01-17T19:51:22.043Z,54.80
2023-01-17T19:53:48.665Z,54.80
2023-01-17T19:56:19.489Z,54.80
2023-01-17T19:58:46.442Z,54.80
2023-01-17T20:01:15.004Z,54.80
2023-01-17T20:03:43.677Z,55.00
2023-01-17T20:06:10.976Z,54.80
2023-01-17T20:08:37.781Z,54.80
2023-01-17T20:11:15.710Z,54.80
2023-01-17T20:13:42.342Z,54.80
2023-01-17T20:16:11.267Z,54.80
2023-01-17T20:18:37.988Z,54.80
2023-01-17T20:21:12.368Z,54.80
2023-01-17T20:23:42.153Z,54.80
2023-01-17T20:26:09.582Z,54.80
2023-01-17T20:28:36.889Z,54.80
2023-01-17T20:31:12.667Z,54.80
2023-01-17T20:33:40.169Z,54.80
2023-01-17T20:36:11.009Z,54.80
2023-01-17T20:38:44.352Z,54.80
2023-01-17T20:41:37.988Z,54.80
2023-01-17T20:44:05.925Z,54.80
2023-01-17T20:46:40.454Z,54.80
2023-01-17T20:49:10.165Z,54.80
2023-01-17T20:51:40.054Z,54.70
2023-01-17T20:54:07.592Z,54.70
2023-01-17T20:56:34.937Z,54.70
2023-01-17T20:59:06.169Z,54.80
2023-01-17T21:01:34.361Z,54.70
2023-01-17T21:04:01.072Z,54.70
2023-01-17T21:06:27.710Z,54.70
2023-01-17T21:08:54.301Z,54.70
2023-01-17T21:11:23.045Z,54.70
2023-01-17T21:13:51.122Z,55.40
2023-01-17T21:16:20.156Z,54.80
2023-01-17T21:18:47.881Z,54.80
2023-01-17T21:21:16.919Z,54.70
2023-01-17T21:23:43.982Z,54.70
2023-01-17T21:26:12.694Z,54.70
2023-01-17T21:28:41.016Z,54.70
2023-01-17T21:31:20.376Z,54.70
2023-01-17T21:33:47.517Z,54.80
2023-01-17T21:36:14.176Z,54.70
2023-01-17T21:38:40.801Z,54.70
2023-01-17T21:41:07.389Z,54.70
2023-01-17T21:43:33.987Z,54.70
2023-01-17T21:46:05.508Z,54.70
2023-01-17T21:48:32.150Z,54.70
2023-01-17T21:51:05.797Z,54.70
2023-01-17T21:53:33.734Z,54.70
2023-01-17T21:56:20.393Z,54.80
2023-01-17T21:58:49.160Z,54.70
2023-01-17T22:01:19.140Z,54.70
2023-01-17T22:03:48.514Z,54.70
2023-01-17T22:06:15.238Z,54.70
2023-01-17T22:08:41.882Z,54.80
2023-01-17T22:11:10.854Z,54.70
2023-01-17T22:13:38.200Z,54.70
2023-01-17T22:16:06.996Z,54.70
2023-01-17T22:18:35.954Z,54.70
2023-01-17T22:21:07.620Z,54.70
2023-01-17T22:23:34.337Z,54.70
2023-01-17T22:26:19.366Z,54.70
2023-01-17T22:28:45.968Z,54.70
2023-01-17T22:31:14.543Z,54.70
2023-01-17T22:33:42.450Z,54.70
2023-01-17T22:36:09.441Z,54.70
2023-01-17T22:38:36.259Z,54.70
2023-01-17T22:41:07.961Z,54.70
2023-01-17T22:43:36.398Z,54.70
2023-01-17T22:46:04.219Z,54.70
2023-01-17T22:48:32.212Z,54.70
2023-01-17T22:51:01.440Z,54.70
2023-01-17T22:53:28.895Z,54.70
2023-01-17T22:56:06.125Z,54.70
2023-01-17T22:58:32.898Z,54.70
2023-01-17T23:01:10.675Z,54.70
2023-01-17T23:03:37.515Z,54.70
2023-01-17T23:06:14.842Z,54.70
2023-01-17T23:08:43.354Z,54.70
2023-01-17T23:11:44.993Z,54.70
2023-01-17T23:14:12.747Z,54.70
2023-01-17T23:17:09.430Z,54.70
2023-01-17T23:19:37.508Z,54.70
2023-01-17T23:22:20.830Z,54.70
2023-01-17T23:24:52.532Z,54.70
2023-01-17T23:27:40.459Z,54.60
2023-01-17T23:30:10.657Z,54.70
2023-01-17T23:32:47.179Z,54.70
2023-01-17T23:35:14.448Z,54.70
2023-01-17T23:37:59.564Z,54.70
2023-01-17T23:40:26.222Z,54.70
2023-01-17T23:43:11.329Z,54.70
2023-01-17T23:45:38.605Z,54.70
2023-01-17T23:48:09.212Z,54.70
2023-01-17T23:50:36.863Z,54.70
2023-01-17T23:53:09.474Z,54.60
2023-01-17T23:55:38.375Z,54.70
2023-01-17T23:58:09.207Z,54.70
